sensor_id;sensor_type;location;lat;lon;timestamp;temperature;humidity
15625;DHT22;7912;51.376;6.126;2023-02-28T00:00:44;3.30;99.90
15625;DHT22;7912;51.376;6.126;2023-02-28T00:03:12;3.20;99.90
15625;DHT22;7912;51.376;6.126;2023-02-28T00:05:39;3.20;99.90
15625;DHT22;7912;51.376;6.126;2023-02-28T00:08:06;3.20;99.90
15625;DHT22;7912;51.376;6.126;2023-02-28T00:10:34;3.20;99.90
15625;DHT22;7912;51.376;6.126;2023-02-28T00:13:04;3.10;99.90
15625;DHT22;7912;51.376;6.126;2023-02-28T00:15:33;3.10;99.90
15625;DHT22;7912;51.376;6.126;2023-02-28T00:18:01;3.10;99.90
15625;DHT22;7912;51.376;6.126;2023-02-28T00:20:29;3.10;99.90
15625;DHT22;7912;51.376;6.126;2023-02-28T00:22:57;3.10;99.90
15625;DHT22;7912;51.376;6.126;2023-02-28T00:25:26;3.00;99.90
15625;DHT22;7912;51.376;6.126;2023-02-28T00:27:54;3.00;99.90
15625;DHT22;7912;51.376;6.126;2023-02-28T00:30:22;3.00;99.90
15625;DHT22;7912;51.376;6.126;2023-02-28T00:32:50;3.00;99.90
15625;DHT22;7912;51.376;6.126;2023-02-28T00:35:18;3.00;99.90
15625;DHT22;7912;51.376;6.126;2023-02-28T00:37:45;2.90;99.90
15625;DHT22;7912;51.376;6.126;2023-02-28T00:40:14;2.90;99.90
15625;DHT22;7912;51.376;6.126;2023-02-28T00:42:41;2.90;99.90
15625;DHT22;7912;51.376;6.126;2023-02-28T00:45:08;2.90;99.90
15625;DHT22;7912;51.376;6.126;2023-02-28T00:47:36;2.90;99.90
15625;DHT22;7912;51.376;6.126;2023-02-28T00:50:04;2.90;99.90
15625;DHT22;7912;51.376;6.126;2023-02-28T00:52:32;2.90;99.90
15625;DHT22;7912;51.376;6.126;2023-02-28T00:55:00;2.90;99.90
15625;DHT22;7912;51.376;6.126;2023-02-28T00:57:27;2.80;99.90
15625;DHT22;7912;51.376;6.126;2023-02-28T00:59:54;2.80;99.90
15625;DHT22;7912;51.376;6.126;2023-02-28T01:02:22;2.80;99.90
15625;DHT22;7912;51.376;6.126;2023-02-28T01:04:50;2.80;99.90
15625;DHT22;7912;51.376;6.126;2023-02-28T01:07:17;2.80;99.90
15625;DHT22;7912;51.376;6.126;2023-02-28T01:09:44;2.80;99.90
15625;DHT22;7912;51.376;6.126;2023-02-28T01:12:11;2.70;99.90
15625;DHT22;7912;51.376;6.126;2023-02-28T01:14:39;2.70;99.90
15625;DHT22;7912;51.376;6.126;2023-02-28T01:17:06;2.70;99.90
15625;DHT22;7912;51.376;6.126;2023-02-28T01:19:34;2.70;99.90
15625;DHT22;7912;51.376;6.126;2023-02-28T01:22:04;2.70;99.90
15625;DHT22;7912;51.376;6.126;2023-02-28T01:24:32;2.70;99.90
15625;DHT22;7912;51.376;6.126;2023-02-28T01:27:00;2.70;99.90
15625;DHT22;7912;51.376;6.126;2023-02-28T01:29:27;2.70;99.90
15625;DHT22;7912;51.376;6.126;2023-02-28T01:31:54;2.60;99.90
15625;DHT22;7912;51.376;6.126;2023-02-28T01:34:22;2.60;99.90
15625;DHT22;7912;51.376;6.126;2023-02-28T01:37:09;2.60;99.90
15625;DHT22;7912;51.376;6.126;2023-02-28T01:39:36;2.60;99.90
15625;DHT22;7912;51.376;6.126;2023-02-28T01:42:04;2.60;99.90
15625;DHT22;7912;51.376;6.126;2023-02-28T01:48:02;2.50;99.90
15625;DHT22;7912;51.376;6.126;2023-02-28T01:50:40;2.50;99.90
15625;DHT22;7912;51.376;6.126;2023-02-28T01:53:16;2.50;99.90
15625;DHT22;7912;51.376;6.126;2023-02-28T01:55:48;2.50;99.90
15625;DHT22;7912;51.376;6.126;2023-02-28T01:58:19;2.50;99.90
15625;DHT22;7912;51.376;6.126;2023-02-28T02:00:47;2.50;99.90
15625;DHT22;7912;51.376;6.126;2023-02-28T02:03:16;2.50;99.90
15625;DHT22;7912;51.376;6.126;2023-02-28T02:05:46;2.50;99.90
15625;DHT22;7912;51.376;6.126;2023-02-28T02:08:23;2.50;99.90
15625;DHT22;7912;51.376;6.126;2023-02-28T02:10:55;2.50;99.90
15625;DHT22;7912;51.376;6.126;2023-02-28T02:31:31;2.30;99.90
15625;DHT22;7912;51.376;6.126;2023-02-28T02:37:31;2.20;99.90
15625;DHT22;7912;51.376;6.126;2023-02-28T02:40:35;2.10;99.90
15625;DHT22;7912;51.376;6.126;2023-02-28T02:43:15;2.10;99.90
15625;DHT22;7912;51.376;6.126;2023-02-28T02:45:56;2.10;99.90
15625;DHT22;7912;51.376;6.126;2023-02-28T02:48:55;2.10;99.90
15625;DHT22;7912;51.376;6.126;2023-02-28T02:51:24;2.10;99.90
15625;DHT22;7912;51.376;6.126;2023-02-28T02:54:06;2.00;99.90
15625;DHT22;7912;51.376;6.126;2023-02-28T02:56:39;2.00;99.90
15625;DHT22;7912;51.376;6.126;2023-02-28T02:59:13;2.00;99.90
15625;DHT22;7912;51.376;6.126;2023-02-28T03:01:54;2.00;99.90
15625;DHT22;7912;51.376;6.126;2023-02-28T03:04:26;2.00;99.90
15625;DHT22;7912;51.376;6.126;2023-02-28T03:06:57;2.00;99.90
15625;DHT22;7912;51.376;6.126;2023-02-28T03:09:25;2.00;99.90
15625;DHT22;7912;51.376;6.126;2023-02-28T03:11:55;2.00;99.90
15625;DHT22;7912;51.376;6.126;2023-02-28T03:15:03;1.90;99.90
15625;DHT22;7912;51.376;6.126;2023-02-28T03:18:10;1.90;99.90
15625;DHT22;7912;51.376;6.126;2023-02-28T03:21:14;1.90;99.90
15625;DHT22;7912;51.376;6.126;2023-02-28T03:23:58;1.90;99.90
15625;DHT22;7912;51.376;6.126;2023-02-28T03:26:52;1.90;99.90
15625;DHT22;7912;51.376;6.126;2023-02-28T03:29:42;1.90;99.90
15625;DHT22;7912;51.376;6.126;2023-02-28T03:32:26;1.80;99.90
15625;DHT22;7912;51.376;6.126;2023-02-28T03:38:02;1.80;99.90
15625;DHT22;7912;51.376;6.126;2023-02-28T03:40:37;1.70;99.90
15625;DHT22;7912;51.376;6.126;2023-02-28T03:43:17;1.70;99.90
15625;DHT22;7912;51.376;6.126;2023-02-28T03:45:50;1.70;99.90
15625;DHT22;7912;51.376;6.126;2023-02-28T03:48:38;1.60;99.90
15625;DHT22;7912;51.376;6.126;2023-02-28T03:51:18;1.50;99.90
15625;DHT22;7912;51.376;6.126;2023-02-28T03:53:59;1.50;99.90
15625;DHT22;7912;51.376;6.126;2023-02-28T03:56:51;1.40;99.90
15625;DHT22;7912;51.376;6.126;2023-02-28T03:59:43;1.40;99.90
15625;DHT22;7912;51.376;6.126;2023-02-28T04:02:15;1.30;99.90
15625;DHT22;7912;51.376;6.126;2023-02-28T04:04:43;1.30;99.90
15625;DHT22;7912;51.376;6.126;2023-02-28T04:07:12;1.30;99.90
15625;DHT22;7912;51.376;6.126;2023-02-28T04:09:40;1.30;99.90
15625;DHT22;7912;51.376;6.126;2023-02-28T04:12:08;1.20;99.90
15625;DHT22;7912;51.376;6.126;2023-02-28T04:14:35;1.20;99.90
15625;DHT22;7912;51.376;6.126;2023-02-28T04:17:02;1.20;99.90
15625;DHT22;7912;51.376;6.126;2023-02-28T04:19:29;1.20;99.90
15625;DHT22;7912;51.376;6.126;2023-02-28T04:21:56;1.20;99.90
15625;DHT22;7912;51.376;6.126;2023-02-28T04:24:26;1.20;99.90
15625;DHT22;7912;51.376;6.126;2023-02-28T04:26:56;1.10;99.90
15625;DHT22;7912;51.376;6.126;2023-02-28T04:29:27;1.10;99.90
15625;DHT22;7912;51.376;6.126;2023-02-28T04:31:56;1.10;99.90
15625;DHT22;7912;51.376;6.126;2023-02-28T04:34:28;1.10;99.90
15625;DHT22;7912;51.376;6.126;2023-02-28T04:36:57;1.00;99.90
15625;DHT22;7912;51.376;6.126;2023-02-28T04:39:43;1.00;99.90
15625;DHT22;7912;51.376;6.126;2023-02-28T04:42:11;0.90;99.90
15625;DHT22;7912;51.376;6.126;2023-02-28T04:44:39;0.90;99.90
15625;DHT22;7912;51.376;6.126;2023-02-28T04:47:06;0.90;99.90
15625;DHT22;7912;51.376;6.126;2023-02-28T04:49:33;0.90;99.90
15625;DHT22;7912;51.376;6.126;2023-02-28T04:52:19;0.80;99.90
15625;DHT22;7912;51.376;6.126;2023-02-28T04:54:46;0.80;99.90
15625;DHT22;7912;51.376;6.126;2023-02-28T04:57:13;0.70;99.90
15625;DHT22;7912;51.376;6.126;2023-02-28T04:59:40;0.70;99.90
15625;DHT22;7912;51.376;6.126;2023-02-28T05:02:08;0.70;99.90
15625;DHT22;7912;51.376;6.126;2023-02-28T05:04:36;0.60;99.90
15625;DHT22;7912;51.376;6.126;2023-02-28T05:07:03;0.60;99.90
15625;DHT22;7912;51.376;6.126;2023-02-28T05:09:31;0.60;99.90
15625;DHT22;7912;51.376;6.126;2023-02-28T05:11:59;0.60;99.90
15625;DHT22;7912;51.376;6.126;2023-02-28T05:14:27;0.60;99.90
15625;DHT22;7912;51.376;6.126;2023-02-28T05:17:13;0.50;99.90
15625;DHT22;7912;51.376;6.126;2023-02-28T05:19:40;0.50;99.90
15625;DHT22;7912;51.376;6.126;2023-02-28T05:22:13;0.50;99.90
15625;DHT22;7912;51.376;6.126;2023-02-28T05:24:43;0.50;99.90
15625;DHT22;7912;51.376;6.126;2023-02-28T05:27:10;0.50;99.90
15625;DHT22;7912;51.376;6.126;2023-02-28T05:29:38;0.50;99.90
15625;DHT22;7912;51.376;6.126;2023-02-28T05:32:10;0.40;99.90
15625;DHT22;7912;51.376;6.126;2023-02-28T05:34:39;0.40;99.90
15625;DHT22;7912;51.376;6.126;2023-02-28T05:37:11;0.40;99.90
15625;DHT22;7912;51.376;6.126;2023-02-28T05:39:40;0.30;99.90
15625;DHT22;7912;51.376;6.126;2023-02-28T05:42:07;0.30;99.90
15625;DHT22;7912;51.376;6.126;2023-02-28T05:44:36;0.40;99.90
15625;DHT22;7912;51.376;6.126;2023-02-28T05:47:03;0.30;99.90
15625;DHT22;7912;51.376;6.126;2023-02-28T05:49:30;0.40;99.90
15625;DHT22;7912;51.376;6.126;2023-02-28T05:51:58;0.30;99.90
15625;DHT22;7912;51.376;6.126;2023-02-28T05:54:25;0.40;99.90
15625;DHT22;7912;51.376;6.126;2023-02-28T05:56:52;0.40;99.90
15625;DHT22;7912;51.376;6.126;2023-02-28T05:59:20;0.40;99.90
15625;DHT22;7912;51.376;6.126;2023-02-28T06:01:47;0.40;99.90
15625;DHT22;7912;51.376;6.126;2023-02-28T06:08:00;0.40;99.90
15625;DHT22;7912;51.376;6.126;2023-02-28T06:10:27;0.40;99.90
15625;DHT22;7912;51.376;6.126;2023-02-28T06:12:55;0.40;99.90
15625;DHT22;7912;51.376;6.126;2023-02-28T06:15:22;0.40;99.90
15625;DHT22;7912;51.376;6.126;2023-02-28T06:17:49;0.40;99.90
15625;DHT22;7912;51.376;6.126;2023-02-28T06:20:16;0.50;99.90
15625;DHT22;7912;51.376;6.126;2023-02-28T06:22:44;0.50;99.90
15625;DHT22;7912;51.376;6.126;2023-02-28T06:25:11;0.50;99.90
15625;DHT22;7912;51.376;6.126;2023-02-28T06:27:38;0.60;99.90
15625;DHT22;7912;51.376;6.126;2023-02-28T06:30:07;0.60;99.90
15625;DHT22;7912;51.376;6.126;2023-02-28T06:32:34;0.60;99.90
15625;DHT22;7912;51.376;6.126;2023-02-28T06:35:03;0.70;99.90
15625;DHT22;7912;51.376;6.126;2023-02-28T06:37:32;0.70;99.90
15625;DHT22;7912;51.376;6.126;2023-02-28T06:39:59;0.70;99.90
15625;DHT22;7912;51.376;6.126;2023-02-28T06:42:27;0.80;99.90
15625;DHT22;7912;51.376;6.126;2023-02-28T06:44:56;0.80;99.90
15625;DHT22;7912;51.376;6.126;2023-02-28T06:47:23;0.80;99.90
15625;DHT22;7912;51.376;6.126;2023-02-28T06:49:51;0.80;99.90
15625;DHT22;7912;51.376;6.126;2023-02-28T06:52:18;0.80;99.90
15625;DHT22;7912;51.376;6.126;2023-02-28T06:54:45;0.80;99.90
15625;DHT22;7912;51.376;6.126;2023-02-28T06:57:12;0.80;99.90
15625;DHT22;7912;51.376;6.126;2023-02-28T06:59:40;0.80;99.90
15625;DHT22;7912;51.376;6.126;2023-02-28T07:02:08;0.80;99.90
15625;DHT22;7912;51.376;6.126;2023-02-28T07:04:35;0.80;99.90
15625;DHT22;7912;51.376;6.126;2023-02-28T07:07:03;0.80;99.90
15625;DHT22;7912;51.376;6.126;2023-02-28T07:09:30;0.90;99.90
15625;DHT22;7912;51.376;6.126;2023-02-28T07:11:57;0.90;99.90
15625;DHT22;7912;51.376;6.126;2023-02-28T07:14:24;0.90;99.90
15625;DHT22;7912;51.376;6.126;2023-02-28T07:16:53;0.90;99.90
15625;DHT22;7912;51.376;6.126;2023-02-28T07:19:20;1.00;99.90
15625;DHT22;7912;51.376;6.126;2023-02-28T07:21:47;1.00;99.90
15625;DHT22;7912;51.376;6.126;2023-02-28T07:24:15;1.10;99.90
15625;DHT22;7912;51.376;6.126;2023-02-28T07:26:44;1.10;99.90
15625;DHT22;7912;51.376;6.126;2023-02-28T07:29:11;1.20;99.90
15625;DHT22;7912;51.376;6.126;2023-02-28T07:31:39;1.20;99.90
15625;DHT22;7912;51.376;6.126;2023-02-28T07:34:09;1.30;99.90
15625;DHT22;7912;51.376;6.126;2023-02-28T07:36:37;1.40;99.90
15625;DHT22;7912;51.376;6.126;2023-02-28T07:39:04;1.40;99.90
15625;DHT22;7912;51.376;6.126;2023-02-28T07:41:31;1.40;99.90
15625;DHT22;7912;51.376;6.126;2023-02-28T07:44:00;1.50;99.90
15625;DHT22;7912;51.376;6.126;2023-02-28T07:46:28;1.60;99.90
15625;DHT22;7912;51.376;6.126;2023-02-28T07:49:02;1.70;99.90
15625;DHT22;7912;51.376;6.126;2023-02-28T07:51:31;1.70;99.90
15625;DHT22;7912;51.376;6.126;2023-02-28T07:53:58;1.80;99.90
15625;DHT22;7912;51.376;6.126;2023-02-28T07:56:25;1.90;99.90
15625;DHT22;7912;51.376;6.126;2023-02-28T07:58:53;2.00;99.90
15625;DHT22;7912;51.376;6.126;2023-02-28T08:01:20;2.00;99.90
15625;DHT22;7912;51.376;6.126;2023-02-28T08:03:48;2.10;99.90
15625;DHT22;7912;51.376;6.126;2023-02-28T08:06:20;2.20;99.90
15625;DHT22;7912;51.376;6.126;2023-02-28T08:08:49;2.20;99.90
15625;DHT22;7912;51.376;6.126;2023-02-28T08:11:17;2.30;99.90
15625;DHT22;7912;51.376;6.126;2023-02-28T08:13:45;2.40;99.90
15625;DHT22;7912;51.376;6.126;2023-02-28T08:16:13;2.50;99.90
15625;DHT22;7912;51.376;6.126;2023-02-28T08:18:50;2.60;99.90
15625;DHT22;7912;51.376;6.126;2023-02-28T08:21:19;2.60;99.90
15625;DHT22;7912;51.376;6.126;2023-02-28T08:23:48;2.70;99.90
15625;DHT22;7912;51.376;6.126;2023-02-28T08:26:17;2.80;99.90
15625;DHT22;7912;51.376;6.126;2023-02-28T08:28:45;2.90;99.90
15625;DHT22;7912;51.376;6.126;2023-02-28T08:31:15;3.00;99.90
15625;DHT22;7912;51.376;6.126;2023-02-28T08:33:43;3.00;99.90
15625;DHT22;7912;51.376;6.126;2023-02-28T08:36:16;3.10;99.90
15625;DHT22;7912;51.376;6.126;2023-02-28T08:38:44;3.20;99.90
15625;DHT22;7912;51.376;6.126;2023-02-28T08:41:13;3.20;99.90
15625;DHT22;7912;51.376;6.126;2023-02-28T08:43:40;3.30;99.90
15625;DHT22;7912;51.376;6.126;2023-02-28T08:46:12;3.40;99.90
15625;DHT22;7912;51.376;6.126;2023-02-28T08:48:41;3.50;99.90
15625;DHT22;7912;51.376;6.126;2023-02-28T08:51:10;3.60;99.90
15625;DHT22;7912;51.376;6.126;2023-02-28T08:53:45;3.70;99.90
15625;DHT22;7912;51.376;6.126;2023-02-28T08:56:13;3.80;99.90
15625;DHT22;7912;51.376;6.126;2023-02-28T08:58:43;3.80;99.90
15625;DHT22;7912;51.376;6.126;2023-02-28T09:01:20;3.90;99.90
15625;DHT22;7912;51.376;6.126;2023-02-28T09:03:50;4.00;99.00
15625;DHT22;7912;51.376;6.126;2023-02-28T09:06:20;4.10;98.90
15625;DHT22;7912;51.376;6.126;2023-02-28T09:08:48;4.20;98.90
15625;DHT22;7912;51.376;6.126;2023-02-28T09:11:16;4.40;98.30
15625;DHT22;7912;51.376;6.126;2023-02-28T09:13:45;4.40;97.50
15625;DHT22;7912;51.376;6.126;2023-02-28T09:16:15;4.50;97.20
15625;DHT22;7912;51.376;6.126;2023-02-28T09:18:47;4.60;96.60
15625;DHT22;7912;51.376;6.126;2023-02-28T09:21:16;4.60;95.90
15625;DHT22;7912;51.376;6.126;2023-02-28T09:23:46;4.70;95.90
15625;DHT22;7912;51.376;6.126;2023-02-28T09:26:24;4.80;95.20
15625;DHT22;7912;51.376;6.126;2023-02-28T09:29:04;4.90;94.60
15625;DHT22;7912;51.376;6.126;2023-02-28T09:31:31;5.00;95.10
15625;DHT22;7912;51.376;6.126;2023-02-28T09:33:59;5.10;94.10
15625;DHT22;7912;51.376;6.126;2023-02-28T09:36:27;5.20;94.20
15625;DHT22;7912;51.376;6.126;2023-02-28T09:39:09;5.20;94.10
15625;DHT22;7912;51.376;6.126;2023-02-28T09:41:42;5.30;93.70
15625;DHT22;7912;51.376;6.126;2023-02-28T09:52:56;5.60;91.10
15625;DHT22;7912;51.376;6.126;2023-02-28T09:55:44;5.70;87.70
15625;DHT22;7912;51.376;6.126;2023-02-28T09:58:51;5.70;87.60
15625;DHT22;7912;51.376;6.126;2023-02-28T10:01:43;5.80;86.50
15625;DHT22;7912;51.376;6.126;2023-02-28T10:10:44;6.00;87.50
15625;DHT22;7912;51.376;6.126;2023-02-28T10:13:23;6.10;84.00
15625;DHT22;7912;51.376;6.126;2023-02-28T10:16:11;6.20;86.40
15625;DHT22;7912;51.376;6.126;2023-02-28T10:18:56;6.50;84.30
15625;DHT22;7912;51.376;6.126;2023-02-28T10:21:42;6.70;83.20
15625;DHT22;7912;51.376;6.126;2023-02-28T10:24:28;7.00;83.80
15625;DHT22;7912;51.376;6.126;2023-02-28T10:27:15;7.20;83.40
15625;DHT22;7912;51.376;6.126;2023-02-28T10:29:49;7.40;80.70
15625;DHT22;7912;51.376;6.126;2023-02-28T10:32:32;7.60;81.60
15625;DHT22;7912;51.376;6.126;2023-02-28T10:35:14;7.70;79.50
15625;DHT22;7912;51.376;6.126;2023-02-28T10:37:46;7.90;79.70
15625;DHT22;7912;51.376;6.126;2023-02-28T10:46:09;8.40;75.90
15625;DHT22;7912;51.376;6.126;2023-02-28T10:48:50;8.50;74.80
15625;DHT22;7912;51.376;6.126;2023-02-28T10:51:35;8.70;75.30
15625;DHT22;7912;51.376;6.126;2023-02-28T10:54:05;8.70;74.00
15625;DHT22;7912;51.376;6.126;2023-02-28T10:56:41;8.70;73.40
15625;DHT22;7912;51.376;6.126;2023-02-28T11:01:46;8.70;72.90
15625;DHT22;7912;51.376;6.126;2023-02-28T11:04:33;8.60;71.60
15625;DHT22;7912;51.376;6.126;2023-02-28T11:07:20;8.40;69.30
15625;DHT22;7912;51.376;6.126;2023-02-28T11:09:53;8.20;70.90
15625;DHT22;7912;51.376;6.126;2023-02-28T11:12:29;8.10;72.80
15625;DHT22;7912;51.376;6.126;2023-02-28T11:15:28;8.10;72.90
15625;DHT22;7912;51.376;6.126;2023-02-28T11:18:18;8.00;73.40
15625;DHT22;7912;51.376;6.126;2023-02-28T11:20:50;8.10;75.00
15625;DHT22;7912;51.376;6.126;2023-02-28T11:23:19;8.30;75.70
15625;DHT22;7912;51.376;6.126;2023-02-28T11:25:51;8.50;75.50
15625;DHT22;7912;51.376;6.126;2023-02-28T11:33:43;9.30;74.50
15625;DHT22;7912;51.376;6.126;2023-02-28T11:36:44;9.50;73.40
15625;DHT22;7912;51.376;6.126;2023-02-28T11:39:12;9.70;72.20
15625;DHT22;7912;51.376;6.126;2023-02-28T11:50:26;10.40;68.10
15625;DHT22;7912;51.376;6.126;2023-02-28T11:53:10;10.50;69.30
15625;DHT22;7912;51.376;6.126;2023-02-28T11:56:10;10.60;69.30
15625;DHT22;7912;51.376;6.126;2023-02-28T12:05:27;10.90;67.90
15625;DHT22;7912;51.376;6.126;2023-02-28T12:08:17;11.00;68.30
15625;DHT22;7912;51.376;6.126;2023-02-28T12:16:20;11.10;65.80
15625;DHT22;7912;51.376;6.126;2023-02-28T12:28:23;11.10;63.00
15625;DHT22;7912;51.376;6.126;2023-02-28T12:31:05;11.10;64.30
15625;DHT22;7912;51.376;6.126;2023-02-28T12:34:02;11.00;64.00
15625;DHT22;7912;51.376;6.126;2023-02-28T12:36:36;11.10;65.20
15625;DHT22;7912;51.376;6.126;2023-02-28T12:39:10;11.10;63.30
15625;DHT22;7912;51.376;6.126;2023-02-28T12:41:46;11.20;63.50
15625;DHT22;7912;51.376;6.126;2023-02-28T12:44:35;11.30;63.80
15625;DHT22;7912;51.376;6.126;2023-02-28T12:47:15;11.40;63.70
15625;DHT22;7912;51.376;6.126;2023-02-28T12:49:56;11.60;63.40
15625;DHT22;7912;51.376;6.126;2023-02-28T12:55:46;11.70;60.60
15625;DHT22;7912;51.376;6.126;2023-02-28T13:04:45;12.00;60.70
15625;DHT22;7912;51.376;6.126;2023-02-28T13:10:48;12.10;59.80
15625;DHT22;7912;51.376;6.126;2023-02-28T13:13:26;12.10;60.30
15625;DHT22;7912;51.376;6.126;2023-02-28T13:16:08;12.10;59.70
15625;DHT22;7912;51.376;6.126;2023-02-28T13:18:39;12.10;59.80
15625;DHT22;7912;51.376;6.126;2023-02-28T13:21:28;12.10;60.00
15625;DHT22;7912;51.376;6.126;2023-02-28T13:24:03;12.20;60.00
15625;DHT22;7912;51.376;6.126;2023-02-28T13:34:38;12.60;59.10
15625;DHT22;7912;51.376;6.126;2023-02-28T13:40:31;12.80;58.60
15625;DHT22;7912;51.376;6.126;2023-02-28T13:43:08;12.90;58.40
15625;DHT22;7912;51.376;6.126;2023-02-28T13:45:36;13.00;58.90
15625;DHT22;7912;51.376;6.126;2023-02-28T13:48:25;13.10;58.60
15625;DHT22;7912;51.376;6.126;2023-02-28T13:50:54;13.20;58.00
15625;DHT22;7912;51.376;6.126;2023-02-28T13:53:43;13.30;58.40
15625;DHT22;7912;51.376;6.126;2023-02-28T13:56:34;13.30;57.60
15625;DHT22;7912;51.376;6.126;2023-02-28T13:59:40;13.30;57.50
15625;DHT22;7912;51.376;6.126;2023-02-28T14:05:39;13.20;57.10
15625;DHT22;7912;51.376;6.126;2023-02-28T14:08:14;13.20;58.30
15625;DHT22;7912;51.376;6.126;2023-02-28T14:10:50;13.10;58.50
15625;DHT22;7912;51.376;6.126;2023-02-28T14:13:46;13.10;58.60
15625;DHT22;7912;51.376;6.126;2023-02-28T14:19:27;13.10;57.40
15625;DHT22;7912;51.376;6.126;2023-02-28T14:22:13;13.10;57.50
15625;DHT22;7912;51.376;6.126;2023-02-28T14:33:42;13.30;57.30
15625;DHT22;7912;51.376;6.126;2023-02-28T14:36:35;13.30;57.10
15625;DHT22;7912;51.376;6.126;2023-02-28T14:39:07;13.30;57.70
15625;DHT22;7912;51.376;6.126;2023-02-28T14:41:39;13.20;57.30
15625;DHT22;7912;51.376;6.126;2023-02-28T14:44:23;13.20;56.90
15625;DHT22;7912;51.376;6.126;2023-02-28T14:46:56;13.20;56.90
15625;DHT22;7912;51.376;6.126;2023-02-28T14:49:36;13.10;57.50
15625;DHT22;7912;51.376;6.126;2023-02-28T14:52:21;13.10;57.40
15625;DHT22;7912;51.376;6.126;2023-02-28T14:55:12;13.10;57.40
15625;DHT22;7912;51.376;6.126;2023-02-28T14:57:54;13.00;56.90
15625;DHT22;7912;51.376;6.126;2023-02-28T15:00:26;13.00;56.80
15625;DHT22;7912;51.376;6.126;2023-02-28T15:02:56;12.90;57.50
15625;DHT22;7912;51.376;6.126;2023-02-28T15:08:12;12.90;57.50
15625;DHT22;7912;51.376;6.126;2023-02-28T15:10:58;12.80;57.30
15625;DHT22;7912;51.376;6.126;2023-02-28T15:16:13;12.80;58.00
15625;DHT22;7912;51.376;6.126;2023-02-28T15:18:54;12.80;58.20
15625;DHT22;7912;51.376;6.126;2023-02-28T15:21:38;12.80;58.00
15625;DHT22;7912;51.376;6.126;2023-02-28T15:27:00;12.80;58.10
15625;DHT22;7912;51.376;6.126;2023-02-28T15:29:45;12.70;58.10
15625;DHT22;7912;51.376;6.126;2023-02-28T15:35:46;12.50;58.50
15625;DHT22;7912;51.376;6.126;2023-02-28T15:38:22;12.30;59.10
15625;DHT22;7912;51.376;6.126;2023-02-28T15:40:57;12.20;58.90
15625;DHT22;7912;51.376;6.126;2023-02-28T15:43:37;12.10;59.10
15625;DHT22;7912;51.376;6.126;2023-02-28T15:46:10;11.90;59.10
15625;DHT22;7912;51.376;6.126;2023-02-28T15:49:02;11.80;59.50
15625;DHT22;7912;51.376;6.126;2023-02-28T15:51:36;11.70;59.30
15625;DHT22;7912;51.376;6.126;2023-02-28T15:54:07;11.50;59.40
15625;DHT22;7912;51.376;6.126;2023-02-28T15:56:46;11.40;59.80
15625;DHT22;7912;51.376;6.126;2023-02-28T15:59:21;11.30;60.10
15625;DHT22;7912;51.376;6.126;2023-02-28T16:02:14;11.10;60.50
15625;DHT22;7912;51.376;6.126;2023-02-28T16:04:56;11.00;60.70
15625;DHT22;7912;51.376;6.126;2023-02-28T16:07:26;10.80;60.90
15625;DHT22;7912;51.376;6.126;2023-02-28T16:09:53;10.60;61.10
15625;DHT22;7912;51.376;6.126;2023-02-28T16:12:26;10.40;61.40
15625;DHT22;7912;51.376;6.126;2023-02-28T16:14:59;10.10;61.90
15625;DHT22;7912;51.376;6.126;2023-02-28T16:17:33;9.90;62.50
15625;DHT22;7912;51.376;6.126;2023-02-28T16:20:16;9.70;63.10
15625;DHT22;7912;51.376;6.126;2023-02-28T16:22:45;9.60;63.70
15625;DHT22;7912;51.376;6.126;2023-02-28T16:25:17;9.40;64.20
15625;DHT22;7912;51.376;6.126;2023-02-28T16:27:53;9.20;64.50
15625;DHT22;7912;51.376;6.126;2023-02-28T16:30:40;9.10;65.10
15625;DHT22;7912;51.376;6.126;2023-02-28T16:33:08;9.00;65.60
15625;DHT22;7912;51.376;6.126;2023-02-28T16:35:36;8.80;66.00
15625;DHT22;7912;51.376;6.126;2023-02-28T16:38:03;8.70;66.50
15625;DHT22;7912;51.376;6.126;2023-02-28T16:40:34;8.60;67.10
15625;DHT22;7912;51.376;6.126;2023-02-28T16:43:07;8.50;67.80
15625;DHT22;7912;51.376;6.126;2023-02-28T16:45:40;8.40;68.40
15625;DHT22;7912;51.376;6.126;2023-02-28T16:48:12;8.30;68.90
15625;DHT22;7912;51.376;6.126;2023-02-28T16:54:06;8.20;70.30
15625;DHT22;7912;51.376;6.126;2023-02-28T16:56:34;8.10;70.60
15625;DHT22;7912;51.376;6.126;2023-02-28T16:59:02;8.00;71.30
15625;DHT22;7912;51.376;6.126;2023-02-28T17:01:30;7.90;71.60
15625;DHT22;7912;51.376;6.126;2023-02-28T17:03:58;7.90;72.20
15625;DHT22;7912;51.376;6.126;2023-02-28T17:06:28;7.80;72.70
15625;DHT22;7912;51.376;6.126;2023-02-28T17:08:57;7.70;72.90
15625;DHT22;7912;51.376;6.126;2023-02-28T17:11:26;7.70;73.30
15625;DHT22;7912;51.376;6.126;2023-02-28T17:13:54;7.60;73.80
15625;DHT22;7912;51.376;6.126;2023-02-28T17:16:32;7.50;74.00
15625;DHT22;7912;51.376;6.126;2023-02-28T17:19:22;7.50;75.00
15625;DHT22;7912;51.376;6.126;2023-02-28T17:21:51;7.40;75.40
15625;DHT22;7912;51.376;6.126;2023-02-28T17:24:18;7.40;75.70
15625;DHT22;7912;51.376;6.126;2023-02-28T17:30:08;7.30;76.70
15625;DHT22;7912;51.376;6.126;2023-02-28T17:32:40;7.20;76.90
15625;DHT22;7912;51.376;6.126;2023-02-28T17:35:08;7.10;77.30
15625;DHT22;7912;51.376;6.126;2023-02-28T17:37:36;7.10;77.80
15625;DHT22;7912;51.376;6.126;2023-02-28T17:40:04;7.00;78.10
15625;DHT22;7912;51.376;6.126;2023-02-28T17:42:33;7.00;78.40
15625;DHT22;7912;51.376;6.126;2023-02-28T17:45:00;6.90;78.40
15625;DHT22;7912;51.376;6.126;2023-02-28T17:47:29;6.90;79.00
15625;DHT22;7912;51.376;6.126;2023-02-28T17:49:56;6.80;79.10
15625;DHT22;7912;51.376;6.126;2023-02-28T17:52:23;6.70;79.40
15625;DHT22;7912;51.376;6.126;2023-02-28T17:54:51;6.70;79.60
15625;DHT22;7912;51.376;6.126;2023-02-28T17:57:18;6.70;80.00
15625;DHT22;7912;51.376;6.126;2023-02-28T17:59:46;6.60;80.30
15625;DHT22;7912;51.376;6.126;2023-02-28T18:02:15;6.60;80.70
15625;DHT22;7912;51.376;6.126;2023-02-28T18:04:42;6.60;81.20
15625;DHT22;7912;51.376;6.126;2023-02-28T18:07:11;6.50;81.60
15625;DHT22;7912;51.376;6.126;2023-02-28T18:09:38;6.40;82.00
15625;DHT22;7912;51.376;6.126;2023-02-28T18:12:06;6.40;82.30
15625;DHT22;7912;51.376;6.126;2023-02-28T18:14:33;6.30;82.50
15625;DHT22;7912;51.376;6.126;2023-02-28T18:17:00;6.30;82.60
15625;DHT22;7912;51.376;6.126;2023-02-28T18:19:27;6.30;82.80
15625;DHT22;7912;51.376;6.126;2023-02-28T18:21:55;6.20;83.00
15625;DHT22;7912;51.376;6.126;2023-02-28T18:24:23;6.20;83.40
15625;DHT22;7912;51.376;6.126;2023-02-28T18:26:51;6.10;83.90
15625;DHT22;7912;51.376;6.126;2023-02-28T18:29:21;6.10;84.30
15625;DHT22;7912;51.376;6.126;2023-02-28T18:31:50;6.10;84.90
15625;DHT22;7912;51.376;6.126;2023-02-28T18:34:20;6.00;85.20
15625;DHT22;7912;51.376;6.126;2023-02-28T18:36:48;6.00;85.60
15625;DHT22;7912;51.376;6.126;2023-02-28T18:39:17;5.90;85.70
15625;DHT22;7912;51.376;6.126;2023-02-28T18:41:45;5.90;86.00
15625;DHT22;7912;51.376;6.126;2023-02-28T18:44:12;5.80;86.20
15625;DHT22;7912;51.376;6.126;2023-02-28T18:46:46;5.80;86.60
15625;DHT22;7912;51.376;6.126;2023-02-28T18:49:15;5.80;87.00
15625;DHT22;7912;51.376;6.126;2023-02-28T18:51:43;5.80;87.20
15625;DHT22;7912;51.376;6.126;2023-02-28T18:54:13;5.70;87.30
15625;DHT22;7912;51.376;6.126;2023-02-28T18:56:42;5.60;87.70
15625;DHT22;7912;51.376;6.126;2023-02-28T18:59:10;5.60;87.90
15625;DHT22;7912;51.376;6.126;2023-02-28T19:01:38;5.60;88.10
15625;DHT22;7912;51.376;6.126;2023-02-28T19:04:05;5.60;88.60
15625;DHT22;7912;51.376;6.126;2023-02-28T19:06:33;5.60;89.40